Time;durP1;ratioP1;P1;durP2;ratioP2;P2;SDS_P1;SDS_P2;PMS_P1;PMS_P2;Temp;Humidity;BMP_temperature;BMP_pressure;BME280_temperature;BME280_humidity;BME280_pressure;Samples;Min_cycle;Max_cycle;Signal;HPM_P1;HPM_P2
2021/01/11 00:01:27;;;;;;;137.32;38.03;;;4.50;99.90;;;;;;4979597;28;20134;-94
2021/01/11 00:03:53;;;;;;;133.32;38.90;;;4.60;99.90;;;;;;4963471;28;20054;-93
2021/01/11 00:06:19;;;;;;;130.50;37.90;;;4.50;99.90;;;;;;4976337;28;20042;-95
2021/01/11 00:08:45;;;;;;;135.18;39.40;;;4.50;99.90;;;;;;4990842;28;20366;-94
2021/01/11 00:11:22;;;;;;;136.18;38.22;;;4.40;99.90;;;;;;4956316;28;20050;-91
2021/01/11 00:13:49;;;;;;;151.65;42.13;;;4.60;99.90;;;;;;4972045;28;20043;-96
2021/01/11 00:16:15;;;;;;;120.10;36.17;;;4.50;99.90;;;;;;4951048;28;20055;-92
2021/01/11 00:18:42;;;;;;;125.80;38.50;;;4.50;99.90;;;;;;4965320;28;20563;-93
2021/01/11 00:21:07;;;;;;;129.65;38.60;;;4.50;99.90;;;;;;4957587;28;20122;-96
2021/01/11 00:23:33;;;;;;;139.23;41.10;;;4.50;99.90;;;;;;4972094;28;20583;-94
2021/01/11 00:26:00;;;;;;;136.05;38.70;;;4.60;99.90;;;;;;4970812;28;20043;-95
2021/01/11 00:28:26;;;;;;;142.05;42.38;;;4.50;99.90;;;;;;4968500;28;20066;-93
2021/01/11 00:30:52;;;;;;;129.88;40.10;;;4.50;99.90;;;;;;4949698;28;20492;-93
2021/01/11 00:33:18;;;;;;;111.60;37.72;;;4.50;99.90;;;;;;4967439;28;20552;-95
2021/01/11 00:35:44;;;;;;;122.00;39.47;;;4.60;99.90;;;;;;4969554;28;20046;-95
2021/01/11 00:38:10;;;;;;;126.22;38.97;;;4.50;99.90;;;;;;4955086;28;20109;-92
2021/01/11 00:40:36;;;;;;;127.07;38.78;;;4.60;99.90;;;;;;4969792;28;20800;-95
2021/01/11 00:43:03;;;;;;;118.25;38.85;;;4.60;99.90;;;;;;4955747;28;20138;-94
2021/01/11 00:45:29;;;;;;;120.97;39.67;;;4.60;99.90;;;;;;4938912;28;20405;-94
2021/01/11 00:47:54;;;;;;;125.68;43.10;;;4.60;99.90;;;;;;4939442;28;20047;-94
2021/01/11 00:50:20;;;;;;;120.78;39.33;;;4.60;99.90;;;;;;4948571;28;20039;-96
2021/01/11 00:52:46;;;;;;;124.93;42.45;;;4.60;99.90;;;;;;4952621;28;20476;-92
2021/01/11 00:55:13;;;;;;;113.18;37.83;;;4.60;99.90;;;;;;4950097;28;20131;-95
2021/01/11 00:57:38;;;;;;;123.60;43.47;;;4.60;99.90;;;;;;4929929;28;20495;-96
2021/01/11 01:00:08;;;;;;;127.88;41.55;;;4.60;99.90;;;;;;4966037;28;20047;-95
2021/01/11 01:02:34;;;;;;;122.03;38.22;;;4.70;99.90;;;;;;4968927;28;20038;-94
2021/01/11 01:04:59;;;;;;;116.97;41.53;;;4.70;99.90;;;;;;4939629;28;20070;-95
2021/01/11 01:07:25;;;;;;;124.00;42.10;;;4.70;99.90;;;;;;4929406;28;20082;-92
2021/01/11 01:09:51;;;;;;;115.28;40.72;;;4.60;99.90;;;;;;4975290;28;20043;-95
2021/01/11 01:12:19;;;;;;;122.95;40.20;;;4.60;99.90;;;;;;4965065;28;20046;-95
2021/01/11 01:14:45;;;;;;;120.30;38.55;;;4.60;99.90;;;;;;4964486;28;20121;-95
2021/01/11 01:17:11;;;;;;;114.80;40.80;;;4.60;99.90;;;;;;4971375;28;20146;-96
2021/01/11 01:19:37;;;;;;;120.05;39.78;;;4.70;99.90;;;;;;4923807;28;20660;-92
2021/01/11 01:22:03;;;;;;;108.35;38.15;;;4.70;99.90;;;;;;4928142;28;20074;-96
2021/01/11 01:24:29;;;;;;;119.88;39.80;;;4.70;99.90;;;;;;4964605;28;20759;-96
2021/01/11 01:26:54;;;;;;;106.65;39.08;;;4.60;99.90;;;;;;4971574;28;20477;-95
2021/01/11 01:29:20;;;;;;;98.03;39.67;;;4.70;99.90;;;;;;4954992;28;20552;-91
2021/01/11 01:31:46;;;;;;;98.47;39.08;;;4.70;99.90;;;;;;4954187;28;20401;-95
2021/01/11 01:34:12;;;;;;;107.63;38.85;;;4.80;99.90;;;;;;4955252;28;20456;-96
2021/01/11 01:36:37;;;;;;;100.53;38.78;;;4.80;99.90;;;;;;4971604;28;20043;-95
2021/01/11 01:39:03;;;;;;;100.93;37.42;;;4.70;99.90;;;;;;4954589;28;20416;-95
2021/01/11 01:41:29;;;;;;;106.93;38.47;;;4.70;99.90;;;;;;4934519;29;20565;-94
2021/01/11 01:43:55;;;;;;;106.75;40.85;;;4.70;99.90;;;;;;4968418;28;20105;-93
2021/01/11 01:46:22;;;;;;;95.75;38.60;;;4.60;99.90;;;;;;4945662;28;20078;-93
2021/01/11 01:48:49;;;;;;;91.75;36.08;;;4.70;99.90;;;;;;4954535;28;20481;-95
2021/01/11 01:51:16;;;;;;;98.00;37.95;;;4.70;99.90;;;;;;4970768;28;20047;-96
2021/01/11 01:53:44;;;;;;;88.97;34.92;;;4.60;99.90;;;;;;4951213;28;20606;-95
2021/01/11 01:56:10;;;;;;;97.22;37.17;;;4.70;99.90;;;;;;4937509;28;20077;-96
2021/01/11 01:58:37;;;;;;;89.30;35.45;;;4.70;99.90;;;;;;4984573;28;20042;-93
2021/01/11 02:01:03;;;;;;;89.65;35.45;;;4.70;99.90;;;;;;4986636;28;20385;-96
2021/01/11 02:03:29;;;;;;;86.15;36.13;;;4.70;99.90;;;;;;4937566;28;20093;-94
2021/01/11 02:05:55;;;;;;;113.03;38.55;;;4.70;99.90;;;;;;4966177;28;20051;-96
2021/01/11 02:08:29;;;;;;;100.43;37.72;;;4.80;99.90;;;;;;4961480;28;20122;-92
2021/01/11 02:11:10;;;;;;;107.30;37.03;;;4.70;99.90;;;;;;4970222;28;20035;-96
2021/01/11 02:13:58;;;;;;;101.32;37.65;;;4.70;99.90;;;;;;4976907;28;20054;-96
2021/01/11 02:17:11;;;;;;;91.53;33.92;;;4.60;99.90;;;;;;4957668;28;20112;-91
2021/01/11 02:20:21;;;;;;;98.35;35.65;;;4.70;99.90;;;;;;4965586;28;20057;-95
2021/01/11 02:22:53;;;;;;;88.80;33.17;;;4.70;99.90;;;;;;4968747;28;20556;-95
2021/01/11 02:25:19;;;;;;;98.60;34.70;;;4.70;99.90;;;;;;4970106;28;20146;-95
2021/01/11 02:27:52;;;;;;;87.30;33.38;;;4.60;99.90;;;;;;4982807;28;20267;-95
2021/01/11 02:30:25;;;;;;;104.85;36.40;;;4.70;99.90;;;;;;4970386;28;20110;-93
2021/01/11 02:33:07;;;;;;;114.75;38.58;;;4.70;99.90;;;;;;4951401;28;20044;-96
2021/01/11 02:35:48;;;;;;;103.80;35.90;;;4.60;99.90;;;;;;4969894;28;20062;-95
2021/01/11 02:38:20;;;;;;;99.00;35.10;;;4.60;99.90;;;;;;4951487;28;20047;-94
2021/01/11 02:40:47;;;;;;;91.70;34.28;;;4.60;99.90;;;;;;4959864;28;20115;-94
2021/01/11 02:43:17;;;;;;;98.15;35.00;;;4.60;99.90;;;;;;4948863;28;20059;-96
2021/01/11 02:45:43;;;;;;;98.88;33.90;;;4.60;99.90;;;;;;4971311;28;20050;-96
2021/01/11 02:48:15;;;;;;;84.90;34.08;;;4.60;99.90;;;;;;4966739;28;20045;-95
2021/01/11 02:51:19;;;;;;;89.57;32.15;;;4.60;99.90;;;;;;4969565;28;20174;-96
2021/01/11 02:54:25;;;;;;;90.40;33.22;;;4.60;99.90;;;;;;4969128;28;20158;-96
2021/01/11 02:56:57;;;;;;;94.05;32.47;;;4.60;99.90;;;;;;4971319;28;20113;-96
2021/01/11 02:59:34;;;;;;;82.70;32.80;;;4.70;99.90;;;;;;4986324;28;20062;-94
2021/01/11 03:02:07;;;;;;;88.07;30.95;;;4.50;99.90;;;;;;4961409;28;20061;-96
2021/01/11 03:04:34;;;;;;;83.85;32.97;;;4.50;99.90;;;;;;4974615;28;20401;-95
2021/01/11 03:07:05;;;;;;;79.05;31.30;;;4.50;99.90;;;;;;4976043;28;20118;-96
2021/01/11 03:09:41;;;;;;;72.93;29.60;;;4.40;99.90;;;;;;4962813;28;20070;-96
2021/01/11 03:12:13;;;;;;;76.28;29.75;;;4.40;99.90;;;;;;4964804;28;20149;-96
2021/01/11 03:14:43;;;;;;;70.45;28.60;;;4.40;99.90;;;;;;4985659;28;20046;-96
2021/01/11 03:17:09;;;;;;;71.43;28.45;;;4.40;99.90;;;;;;4973159;28;20090;-96
2021/01/11 03:19:35;;;;;;;64.10;26.90;;;4.40;99.90;;;;;;4922765;28;20130;-94
2021/01/11 03:22:04;;;;;;;67.47;27.77;;;4.40;99.90;;;;;;4987763;28;20062;-96
2021/01/11 03:24:30;;;;;;;61.58;26.33;;;4.50;99.90;;;;;;4983136;28;20053;-94
2021/01/11 03:27:00;;;;;;;67.28;26.92;;;4.40;99.90;;;;;;4962271;28;20061;-96
2021/01/11 03:29:28;;;;;;;61.08;26.50;;;4.30;99.90;;;;;;4958937;28;20087;-95
2021/01/11 03:31:54;;;;;;;63.65;28.13;;;4.40;99.90;;;;;;4975561;28;20058;-95
2021/01/11 03:34:20;;;;;;;69.55;28.35;;;4.30;99.90;;;;;;4959516;28;20468;-96
2021/01/11 03:36:47;;;;;;;68.18;28.02;;;4.30;99.90;;;;;;4973374;28;20066;-94
2021/01/11 03:39:13;;;;;;;68.82;29.63;;;4.50;99.90;;;;;;4969440;28;20062;-96
2021/01/11 03:41:41;;;;;;;69.10;28.15;;;4.40;99.90;;;;;;4975506;28;20089;-96
2021/01/11 03:44:07;;;;;;;73.28;29.23;;;4.30;99.90;;;;;;4974510;28;20119;-96
2021/01/11 03:46:33;;;;;;;68.80;26.67;;;4.30;99.90;;;;;;4986161;28;20057;-93
2021/01/11 03:48:59;;;;;;;61.22;27.02;;;4.40;99.90;;;;;;4973370;28;20093;-96
2021/01/11 03:51:25;;;;;;;64.63;27.77;;;4.60;99.90;;;;;;4941243;28;20054;-96
2021/01/11 03:53:51;;;;;;;62.22;29.05;;;4.40;99.90;;;;;;4943659;28;20238;-96
2021/01/11 03:56:17;;;;;;;68.10;28.75;;;4.30;99.90;;;;;;4976148;28;20073;-96
2021/01/11 03:58:43;;;;;;;73.47;29.58;;;4.30;99.90;;;;;;4968797;28;20162;-96
2021/01/11 04:01:10;;;;;;;66.55;29.35;;;4.30;99.90;;;;;;4983913;28;20174;-93
2021/01/11 04:03:36;;;;;;;69.03;28.90;;;4.50;99.90;;;;;;4985289;28;20045;-94
2021/01/11 04:06:09;;;;;;;73.85;32.05;;;4.20;99.90;;;;;;4968064;28;20057;-96
2021/01/11 04:08:35;;;;;;;70.18;31.13;;;4.30;99.90;;;;;;4956525;28;20129;-93
2021/01/11 04:11:01;;;;;;;70.70;29.08;;;4.40;99.90;;;;;;4956260;28;20053;-96
2021/01/11 04:13:27;;;;;;;80.50;33.22;;;4.20;99.90;;;;;;4955260;28;20113;-96
2021/01/11 04:15:53;;;;;;;68.30;31.13;;;4.30;99.90;;;;;;4964479;28;20047;-94
2021/01/11 04:18:21;;;;;;;65.00;27.67;;;4.30;99.90;;;;;;4969962;28;20022;-95
2021/01/11 04:20:50;;;;;;;60.50;28.98;;;4.30;99.90;;;;;;4991944;28;20050;-96
2021/01/11 04:23:21;;;;;;;63.90;28.90;;;4.30;99.90;;;;;;4986470;28;20047;-96
2021/01/11 04:25:47;;;;;;;72.57;30.52;;;4.30;99.90;;;;;;4980863;28;20058;-96
2021/01/11 04:28:15;;;;;;;69.97;29.98;;;4.30;99.90;;;;;;4942836;29;20099;-96
2021/01/11 04:30:41;;;;;;;77.40;34.05;;;4.30;99.90;;;;;;4970665;28;20365;-96
2021/01/11 04:33:07;;;;;;;65.85;29.95;;;4.30;99.90;;;;;;4950990;28;20042;-96
2021/01/11 04:35:33;;;;;;;73.28;32.17;;;4.30;99.90;;;;;;4962268;28;20054;-91
2021/01/11 04:37:59;;;;;;;62.92;28.80;;;4.30;99.90;;;;;;4955839;28;20046;-95
2021/01/11 04:40:25;;;;;;;80.32;33.35;;;4.40;99.90;;;;;;4973184;28;20760;-96
2021/01/11 04:43:10;;;;;;;73.80;31.70;;;4.30;99.90;;;;;;4973348;28;20043;-96
2021/01/11 04:45:36;;;;;;;74.82;30.95;;;4.30;99.90;;;;;;4942471;29;20051;-93
2021/01/11 04:48:03;;;;;;;67.93;31.73;;;4.40;99.90;;;;;;4953971;28;20066;-96
2021/01/11 04:50:29;;;;;;;67.93;31.02;;;4.30;99.90;;;;;;4967637;28;20118;-95
2021/01/11 04:52:56;;;;;;;67.90;30.70;;;4.30;99.90;;;;;;4973750;28;20123;-96
2021/01/11 04:55:23;;;;;;;81.10;33.80;;;4.40;99.90;;;;;;4981381;28;20047;-96
2021/01/11 04:57:56;;;;;;;76.78;33.78;;;4.60;99.90;;;;;;4947616;28;20062;-96
2021/01/11 05:00:27;;;;;;;64.75;30.40;;;4.40;99.90;;;;;;4980473;28;20449;-95
2021/01/11 05:02:57;;;;;;;74.40;33.53;;;4.40;99.90;;;;;;4974170;28;20057;-96
2021/01/11 05:05:26;;;;;;;80.13;34.30;;;4.40;99.90;;;;;;4982142;28;20054;-95
2021/01/11 05:07:52;;;;;;;67.00;32.07;;;4.60;99.90;;;;;;4984855;28;20111;-96
2021/01/11 05:10:25;;;;;;;53.53;26.58;;;4.50;99.90;;;;;;4971818;28;20325;-93
2021/01/11 05:13:01;;;;;;;69.05;32.17;;;4.40;99.90;;;;;;4992910;28;20030;-96
2021/01/11 05:15:42;;;;;;;60.88;30.70;;;4.50;99.90;;;;;;4991936;28;20031;-94
2021/01/11 05:18:16;;;;;;;69.38;30.83;;;4.50;99.90;;;;;;5040187;23;20039;-96
2021/01/11 05:20:42;;;;;;;78.03;32.75;;;4.50;99.90;;;;;;4977694;28;20070;-96
2021/01/11 05:23:13;;;;;;;74.05;33.33;;;4.50;99.90;;;;;;4946761;28;20047;-96
2021/01/11 05:25:44;;;;;;;72.72;35.15;;;4.50;99.90;;;;;;4962676;28;20054;-92
2021/01/11 05:28:15;;;;;;;87.22;35.95;;;4.50;99.90;;;;;;4965640;28;20061;-96
2021/01/11 05:30:46;;;;;;;78.30;32.30;;;4.60;99.90;;;;;;4963542;28;20553;-92
2021/01/11 05:33:20;;;;;;;79.00;33.17;;;4.40;99.90;;;;;;4983442;28;20068;-96
2021/01/11 05:36:06;;;;;;;79.65;36.08;;;4.40;99.90;;;;;;4952200;28;20512;-96
2021/01/11 05:38:46;;;;;;;79.15;34.08;;;4.40;99.90;;;;;;4980754;28;20423;-96
2021/01/11 05:41:16;;;;;;;79.43;35.35;;;4.40;99.90;;;;;;4964059;28;20124;-96
2021/01/11 05:43:42;;;;;;;91.57;37.10;;;4.40;99.90;;;;;;4957073;28;20065;-93
2021/01/11 05:46:27;;;;;;;75.10;36.22;;;4.40;99.90;;;;;;4958000;28;20070;-96
2021/01/11 05:49:01;;;;;;;76.50;36.08;;;4.40;99.90;;;;;;4960339;28;20032;-93
2021/01/11 05:51:28;;;;;;;75.40;31.90;;;4.40;99.90;;;;;;4943423;28;20059;-92
2021/01/11 05:53:55;;;;;;;72.75;31.52;;;4.40;99.90;;;;;;4974383;28;20042;-94
2021/01/11 05:56:22;;;;;;;80.43;34.30;;;4.40;99.90;;;;;;4972741;28;20047;-96
2021/01/11 05:59:06;;;;;;;84.40;37.15;;;4.40;99.90;;;;;;4959107;28;20050;-95
2021/01/11 06:01:37;;;;;;;90.22;37.40;;;4.40;99.90;;;;;;4974420;28;20047;-94
2021/01/11 06:04:04;;;;;;;77.07;34.53;;;4.40;99.90;;;;;;4990484;28;20114;-93
2021/01/11 06:06:32;;;;;;;79.65;33.72;;;4.40;99.90;;;;;;4974457;28;20043;-96
2021/01/11 06:09:03;;;;;;;84.47;34.38;;;4.40;99.90;;;;;;4966194;28;20107;-96
2021/01/11 06:11:29;;;;;;;87.68;34.78;;;4.50;99.90;;;;;;4956049;28;20047;-96
2021/01/11 06:13:58;;;;;;;79.88;35.28;;;4.70;99.90;;;;;;4973166;28;20079;-96
2021/01/11 06:16:26;;;;;;;74.72;31.77;;;4.50;99.90;;;;;;4958131;28;20421;-96
2021/01/11 06:18:53;;;;;;;81.40;34.00;;;4.40;99.90;;;;;;4973301;28;20058;-96
2021/01/11 06:21:20;;;;;;;71.90;33.08;;;4.60;99.90;;;;;;4974384;28;20049;-95
2021/01/11 06:23:46;;;;;;;76.05;32.35;;;4.50;99.90;;;;;;4973028;28;20532;-91
2021/01/11 06:26:25;;;;;;;76.03;34.08;;;4.40;99.90;;;;;;4954273;28;20038;-95
2021/01/11 06:28:51;;;;;;;69.88;31.08;;;4.40;99.90;;;;;;4969734;28;20046;-95
2021/01/11 06:31:17;;;;;;;70.28;33.65;;;4.50;99.90;;;;;;4971172;28;20056;-95
2021/01/11 06:33:44;;;;;;;76.53;32.83;;;4.40;99.90;;;;;;4954460;28;20046;-92
2021/01/11 06:36:20;;;;;;;82.72;34.70;;;4.40;99.90;;;;;;4945625;28;20416;-95
2021/01/11 06:38:48;;;;;;;73.38;33.03;;;4.40;99.90;;;;;;4958978;28;20046;-91
2021/01/11 06:41:18;;;;;;;84.68;37.00;;;4.40;99.90;;;;;;4939100;28;20130;-95
2021/01/11 06:43:50;;;;;;;81.88;32.92;;;4.30;99.90;;;;;;4972237;28;20101;-93
2021/01/11 06:46:28;;;;;;;85.30;35.38;;;4.40;99.90;;;;;;4970991;28;20105;-93
2021/01/11 06:49:03;;;;;;;77.88;33.85;;;4.40;99.90;;;;;;4971390;28;20090;-94
2021/01/11 06:51:30;;;;;;;82.25;34.17;;;4.40;99.90;;;;;;4972994;28;20126;-94
2021/01/11 06:54:10;;;;;;;80.70;33.88;;;4.40;99.90;;;;;;4972310;28;20042;-94
2021/01/11 06:56:37;;;;;;;71.97;32.33;;;4.40;99.90;;;;;;4972354;28;20282;-94
2021/01/11 06:59:16;;;;;;;91.57;39.13;;;4.40;99.90;;;;;;4971490;28;20408;-96
2021/01/11 07:01:42;;;;;;;76.70;33.38;;;4.40;99.90;;;;;;4966200;28;20592;-94
2021/01/11 07:04:09;;;;;;;95.93;35.47;;;4.50;99.90;;;;;;4988598;28;20034;-96
2021/01/11 07:06:40;;;;;;;102.88;36.63;;;4.40;99.90;;;;;;5004319;28;20054;-96
2021/01/11 07:09:17;;;;;;;89.45;36.95;;;4.50;99.90;;;;;;4988255;28;20783;-95
2021/01/11 07:11:44;;;;;;;84.65;35.42;;;4.40;99.90;;;;;;4959451;28;20038;-94
2021/01/11 07:14:12;;;;;;;97.28;34.75;;;4.40;99.90;;;;;;4977140;28;20628;-95
2021/01/11 07:16:41;;;;;;;81.57;35.25;;;4.40;99.90;;;;;;4960427;28;20051;-94
2021/01/11 07:19:08;;;;;;;96.40;37.67;;;4.50;99.90;;;;;;4976784;28;20054;-95
2021/01/11 07:21:35;;;;;;;95.05;35.78;;;4.40;99.90;;;;;;4976457;28;20039;-95
2021/01/11 07:24:03;;;;;;;92.93;37.50;;;4.40;99.90;;;;;;4975992;28;20121;-96
2021/01/11 07:26:30;;;;;;;97.93;37.63;;;4.40;99.90;;;;;;4976074;28;20062;-93
2021/01/11 07:29:03;;;;;;;89.43;34.40;;;4.40;99.90;;;;;;4959332;28;20043;-96
2021/01/11 07:31:40;;;;;;;101.78;36.95;;;4.40;99.90;;;;;;4980128;28;20030;-96
2021/01/11 07:34:09;;;;;;;102.60;39.92;;;4.40;99.90;;;;;;4984488;28;20050;-95
2021/01/11 07:36:38;;;;;;;90.80;32.63;;;4.40;99.90;;;;;;4968367;28;20043;-95
2021/01/11 07:39:20;;;;;;;95.93;37.67;;;4.50;99.90;;;;;;4946674;28;20046;-94
2021/01/11 07:41:50;;;;;;;98.57;37.60;;;4.40;99.90;;;;;;4951684;28;20059;-93
2021/01/11 07:44:19;;;;;;;97.07;37.42;;;4.40;99.90;;;;;;4983199;28;20049;-96
2021/01/11 07:46:56;;;;;;;107.00;38.67;;;4.40;99.90;;;;;;4956311;28;20054;-96
2021/01/11 07:49:24;;;;;;;111.95;38.83;;;4.40;99.90;;;;;;4984183;28;20050;-95
2021/01/11 07:51:54;;;;;;;86.50;35.55;;;4.30;99.90;;;;;;4982940;28;20050;-90
2021/01/11 07:54:22;;;;;;;105.03;39.38;;;4.50;99.90;;;;;;4972801;28;20050;-96
2021/01/11 07:56:50;;;;;;;109.43;39.42;;;4.30;99.90;;;;;;4978309;28;20054;-96
2021/01/11 07:59:17;;;;;;;108.05;39.90;;;4.50;99.90;;;;;;4944701;28;20055;-96
2021/01/11 08:01:45;;;;;;;105.82;39.17;;;4.40;99.90;;;;;;4963662;28;20480;-96
2021/01/11 08:04:12;;;;;;;108.43;39.38;;;4.30;99.90;;;;;;4999841;28;20046;-96
2021/01/11 08:06:51;;;;;;;101.00;38.08;;;4.30;99.90;;;;;;4988026;28;20039;-95
2021/01/11 08:09:19;;;;;;;117.55;40.97;;;4.30;99.90;;;;;;4974653;28;20046;-96
2021/01/11 08:11:46;;;;;;;91.10;34.67;;;4.30;99.90;;;;;;4983996;28;20043;-96
2021/01/11 08:14:12;;;;;;;111.00;37.75;;;4.20;99.90;;;;;;4980279;28;20069;-96
2021/01/11 08:16:44;;;;;;;112.07;40.92;;;4.30;99.90;;;;;;4994758;28;20039;-92
2021/01/11 08:19:12;;;;;;;119.32;41.65;;;4.20;99.90;;;;;;4985241;28;20767;-92
2021/01/11 08:21:39;;;;;;;106.53;37.90;;;4.20;99.90;;;;;;4988208;28;20042;-94
2021/01/11 08:24:10;;;;;;;101.35;38.15;;;4.20;99.90;;;;;;4991253;28;20055;-96
2021/01/11 08:26:46;;;;;;;106.82;36.70;;;4.30;99.90;;;;;;4994632;28;20110;-96
2021/01/11 08:29:13;;;;;;;125.30;42.33;;;4.20;99.90;;;;;;4980596;28;20070;-96
2021/01/11 08:31:39;;;;;;;126.57;37.38;;;4.30;99.90;;;;;;4981621;28;20035;-96
2021/01/11 08:34:07;;;;;;;120.32;40.00;;;4.30;99.90;;;;;;4980344;28;20069;-93
2021/01/11 08:36:36;;;;;;;131.27;42.88;;;4.20;99.90;;;;;;4976246;28;20042;-95
2021/01/11 08:39:14;;;;;;;135.07;43.38;;;4.20;99.90;;;;;;4970473;28;20051;-94
2021/01/11 08:41:49;;;;;;;130.82;41.95;;;4.20;99.90;;;;;;5003071;28;20121;-96
2021/01/11 08:44:33;;;;;;;123.40;40.75;;;4.20;99.90;;;;;;4980811;28;20486;-95
2021/01/11 08:47:08;;;;;;;133.27;43.90;;;4.20;99.90;;;;;;4959212;28;20054;-92
2021/01/11 08:49:55;;;;;;;125.03;39.72;;;4.20;99.90;;;;;;4959272;28;20117;-92
2021/01/11 08:52:26;;;;;;;129.50;39.40;;;4.20;99.90;;;;;;4956409;28;20057;-94
2021/01/11 08:54:52;;;;;;;128.82;44.88;;;4.40;99.90;;;;;;4989382;28;20047;-96
2021/01/11 08:57:18;;;;;;;122.03;38.10;;;4.40;99.90;;;;;;4967148;28;20173;-94
2021/01/11 08:59:49;;;;;;;122.38;39.90;;;4.20;99.90;;;;;;4974966;28;20063;-96
2021/01/11 09:02:29;;;;;;;120.10;40.03;;;4.20;99.90;;;;;;4977189;28;20038;-94
2021/01/11 09:04:56;;;;;;;119.68;39.05;;;4.20;99.90;;;;;;4991662;28;20035;-96
2021/01/11 09:07:30;;;;;;;114.75;37.65;;;4.30;99.90;;;;;;4967970;28;20034;-94
2021/01/11 09:09:57;;;;;;;125.90;40.92;;;4.20;99.90;;;;;;4967956;28;20049;-94
2021/01/11 09:12:33;;;;;;;126.00;40.28;;;4.20;99.90;;;;;;4954335;28;20489;-91
2021/01/11 09:14:58;;;;;;;113.72;37.75;;;4.30;99.90;;;;;;4955248;28;20137;-88
2021/01/11 09:17:29;;;;;;;128.50;40.58;;;4.20;99.90;;;;;;4983987;28;20130;-93
2021/01/11 09:19:58;;;;;;;128.15;40.20;;;4.20;99.90;;;;;;4955080;28;20059;-95
2021/01/11 09:22:35;;;;;;;123.00;40.25;;;4.20;99.90;;;;;;4961295;28;20430;-93
2021/01/11 09:25:10;;;;;;;124.50;37.90;;;4.20;99.90;;;;;;4981489;28;20039;-89
2021/01/11 09:27:40;;;;;;;125.50;40.30;;;4.20;99.90;;;;;;4969051;28;20074;-93
2021/01/11 09:30:08;;;;;;;112.85;38.35;;;4.30;99.90;;;;;;4978053;28;20122;-88
2021/01/11 09:32:36;;;;;;;125.57;37.30;;;4.30;99.90;;;;;;4957692;28;20042;-90
2021/01/11 09:35:04;;;;;;;115.78;37.55;;;4.30;99.90;;;;;;4965283;28;20054;-88
2021/01/11 09:37:30;;;;;;;116.22;40.25;;;4.30;99.90;;;;;;4970438;28;20496;-92
2021/01/11 09:39:56;;;;;;;107.47;35.55;;;4.30;99.90;;;;;;4934228;28;20042;-91
2021/01/11 09:42:22;;;;;;;115.40;39.00;;;4.30;99.90;;;;;;4968155;28;20034;-92
2021/01/11 09:44:47;;;;;;;112.68;39.22;;;4.30;99.90;;;;;;4952821;28;20113;-92
2021/01/11 09:47:14;;;;;;;102.95;38.72;;;4.40;99.90;;;;;;4966670;28;20118;-90
2021/01/11 09:49:40;;;;;;;110.03;38.58;;;4.30;99.90;;;;;;4957395;28;20050;-89
2021/01/11 09:52:06;;;;;;;94.22;38.78;;;4.30;99.90;;;;;;4966964;28;20050;-90
2021/01/11 09:54:32;;;;;;;99.82;37.05;;;4.30;99.90;;;;;;4949177;28;20066;-93
2021/01/11 09:56:59;;;;;;;98.03;34.55;;;4.40;99.90;;;;;;4955580;28;20070;-92
2021/01/11 09:59:25;;;;;;;99.40;34.50;;;4.40;99.90;;;;;;4967543;28;20031;-91
2021/01/11 10:01:53;;;;;;;83.35;34.35;;;4.40;99.90;;;;;;4969305;28;20042;-91
2021/01/11 10:04:19;;;;;;;80.63;33.67;;;4.40;99.90;;;;;;4967450;28;20396;-92
2021/01/11 10:06:50;;;;;;;86.75;35.50;;;4.50;99.90;;;;;;4969898;28;20059;-89
2021/01/11 10:09:19;;;;;;;83.78;33.70;;;4.40;99.90;;;;;;4968843;28;21256;-90
2021/01/11 10:11:51;;;;;;;93.25;35.22;;;4.50;99.90;;;;;;4967365;28;20692;-94
2021/01/11 10:14:17;;;;;;;87.72;33.03;;;4.50;99.90;;;;;;4968912;28;20039;-92
2021/01/11 10:16:44;;;;;;;78.88;32.60;;;4.50;99.90;;;;;;4968012;28;20511;-92
2021/01/11 10:19:16;;;;;;;71.72;32.28;;;4.50;99.90;;;;;;4957519;28;20066;-88
2021/01/11 10:21:42;;;;;;;83.50;34.03;;;4.50;99.90;;;;;;4955918;28;20067;-91
2021/01/11 10:24:09;;;;;;;74.07;33.20;;;4.50;99.90;;;;;;4961803;28;20094;-90
2021/01/11 10:26:35;;;;;;;69.55;32.03;;;4.50;99.90;;;;;;4955948;28;20524;-93
2021/01/11 10:29:03;;;;;;;87.13;35.78;;;4.50;99.90;;;;;;4934772;28;20113;-91
2021/01/11 10:31:29;;;;;;;71.10;32.38;;;4.50;99.90;;;;;;4956663;28;20590;-93
2021/01/11 10:33:55;;;;;;;71.80;33.65;;;4.50;99.90;;;;;;4967931;28;20085;-93
2021/01/11 10:36:20;;;;;;;77.47;33.45;;;4.60;99.90;;;;;;4969072;28;20452;-95
2021/01/11 10:38:46;;;;;;;64.85;28.98;;;4.60;99.90;;;;;;4952667;28;20047;-94
2021/01/11 10:41:20;;;;;;;73.20;33.00;;;4.70;99.90;;;;;;4967671;28;20386;-94
2021/01/11 10:43:48;;;;;;;59.88;31.33;;;4.70;99.90;;;;;;4968645;28;20525;-94
2021/01/11 10:46:15;;;;;;;71.72;31.30;;;4.70;99.90;;;;;;4977940;28;20059;-89
2021/01/11 10:48:45;;;;;;;61.92;27.65;;;4.70;99.90;;;;;;4979096;28;20840;-88
2021/01/11 10:51:11;;;;;;;49.92;24.83;;;4.80;99.90;;;;;;4976761;28;20449;-88
2021/01/11 10:53:39;;;;;;;48.92;25.83;;;4.80;99.90;;;;;;4976877;28;20055;-91
2021/01/11 10:56:05;;;;;;;54.92;28.33;;;4.80;99.90;;;;;;4976345;28;20054;-93
2021/01/11 10:58:31;;;;;;;55.85;29.80;;;4.80;99.90;;;;;;4961161;28;20161;-88
2021/01/11 11:00:57;;;;;;;52.38;26.58;;;4.80;99.90;;;;;;4973537;28;20666;-91
2021/01/11 11:03:23;;;;;;;48.00;26.25;;;4.90;99.90;;;;;;4925379;28;20149;-89
2021/01/11 11:05:50;;;;;;;45.92;23.50;;;4.90;99.90;;;;;;4955587;28;20129;-91
2021/01/11 11:08:16;;;;;;;45.03;23.33;;;5.00;99.90;;;;;;4964471;28;20049;-92
2021/01/11 11:10:42;;;;;;;44.28;25.08;;;4.90;99.90;;;;;;4988073;28;20049;-93
2021/01/11 11:13:08;;;;;;;47.70;22.92;;;4.90;99.90;;;;;;4972943;28;20046;-94
2021/01/11 11:15:34;;;;;;;47.45;25.38;;;5.10;99.90;;;;;;4938779;28;20038;-91
2021/01/11 11:17:59;;;;;;;51.25;24.92;;;5.00;99.90;;;;;;4968292;28;20065;-96
2021/01/11 11:20:25;;;;;;;40.55;23.02;;;5.00;99.90;;;;;;4954765;28;20134;-94
2021/01/11 11:22:53;;;;;;;39.65;21.08;;;5.10;99.90;;;;;;4963071;28;20054;-94
2021/01/11 11:25:22;;;;;;;36.45;20.25;;;5.20;99.90;;;;;;4974391;28;20050;-92
2021/01/11 11:27:48;;;;;;;44.55;21.55;;;5.10;99.90;;;;;;4958555;28;20051;-92
2021/01/11 11:30:16;;;;;;;39.33;21.40;;;5.10;99.90;;;;;;4957077;29;20066;-93
2021/01/11 11:32:49;;;;;;;31.90;20.23;;;5.20;99.90;;;;;;4977853;28;20055;-93
2021/01/11 11:35:16;;;;;;;41.38;21.67;;;5.20;99.90;;;;;;4961443;28;20503;-92
2021/01/11 11:37:43;;;;;;;33.65;19.38;;;5.20;99.90;;;;;;4972436;28;20043;-89
2021/01/11 11:40:10;;;;;;;32.78;19.30;;;5.20;99.90;;;;;;4972040;28;20412;-89
2021/01/11 11:42:41;;;;;;;38.63;18.42;;;5.20;99.90;;;;;;4973728;28;20047;-91
2021/01/11 11:45:09;;;;;;;34.60;19.88;;;5.20;99.90;;;;;;4991801;28;20819;-91
2021/01/11 11:47:37;;;;;;;27.73;18.65;;;5.20;99.90;;;;;;4973558;28;20492;-95
2021/01/11 11:50:14;;;;;;;33.13;18.77;;;5.20;99.90;;;;;;4955009;28;20089;-93
2021/01/11 11:52:40;;;;;;;34.13;19.20;;;5.20;99.90;;;;;;4972597;28;20043;-95
2021/01/11 11:55:09;;;;;;;29.77;16.55;;;5.20;99.90;;;;;;4968983;28;20511;-91
2021/01/11 11:57:38;;;;;;;39.67;17.48;;;5.20;99.90;;;;;;4966519;28;20031;-90
2021/01/11 12:00:05;;;;;;;31.33;15.82;;;5.20;99.90;;;;;;4964028;28;20038;-92
2021/01/11 12:02:31;;;;;;;26.20;15.68;;;5.30;99.90;;;;;;4975597;28;20066;-91
2021/01/11 12:04:57;;;;;;;29.52;16.15;;;5.30;99.90;;;;;;4953689;28;20046;-90
2021/01/11 12:07:24;;;;;;;30.67;16.73;;;5.30;99.90;;;;;;4973488;28;20366;-90
2021/01/11 12:09:53;;;;;;;26.35;15.63;;;5.30;99.90;;;;;;4954816;28;20608;-90
2021/01/11 12:12:19;;;;;;;33.42;16.42;;;5.30;99.90;;;;;;4954595;28;20119;-91
2021/01/11 12:14:45;;;;;;;26.90;15.60;;;5.30;99.90;;;;;;4987251;28;20043;-91
2021/01/11 12:17:11;;;;;;;24.75;15.70;;;5.30;99.90;;;;;;4988580;28;20045;-95
2021/01/11 12:19:37;;;;;;;22.58;15.57;;;5.40;99.90;;;;;;4968223;28;20058;-95
2021/01/11 12:22:10;;;;;;;28.40;16.65;;;5.40;99.90;;;;;;4973500;28;20476;-93
2021/01/11 12:24:38;;;;;;;22.45;14.10;;;5.40;99.90;;;;;;4974499;28;20038;-92
2021/01/11 12:27:04;;;;;;;29.73;17.08;;;5.40;99.90;;;;;;4972472;28;20068;-92
2021/01/11 12:29:30;;;;;;;23.35;15.05;;;5.40;99.90;;;;;;4971794;28;20468;-93
2021/01/11 12:31:57;;;;;;;22.08;12.98;;;5.40;99.90;;;;;;4977772;28;20146;-94
2021/01/11 12:34:23;;;;;;;24.42;14.70;;;5.40;99.90;;;;;;4958252;28;20078;-92
2021/01/11 12:36:49;;;;;;;21.95;15.68;;;5.40;99.90;;;;;;4969493;28;20043;-93
2021/01/11 12:39:14;;;;;;;24.73;14.43;;;5.40;99.90;;;;;;4942635;28;20548;-93
2021/01/11 12:41:41;;;;;;;23.90;14.55;;;5.40;99.90;;;;;;4954561;28;20035;-93
2021/01/11 12:44:08;;;;;;;23.63;13.15;;;5.40;99.90;;;;;;4961948;28;20050;-96